KUOX/UOX METAR and TAF weather

Enter ICAO airport designator
Station Type Date Time Source
KUOX METAR 2020/06/03 16:15 UTC NOAA

KUOX 031615Z AUTO 29003KT 9SM FEW045 27/20 A3005 RMK AO2


Station Type Date Time Source
KUOX Decoded METAR 2020/06/03 16:15 UTC NOAA

Oxford, University-Oxford Airport, MS, United States (KUOX) 34-23-04N 089-32-08W
Jun 03, 2020 - 12:15 PM EDT / 2020.06.03 1615 UTC
Wind: from the WNW (290 degrees) at 3 MPH (3 KT):0
Visibility: 9 mile(s):0
Sky conditions: mostly clear
Temperature: 80 F (27 C)
Dew Point: 68 F (20 C)
Relative Humidity: 65%
Pressure (altimeter): 30.05 in. Hg (1017 hPa)
ob: KUOX 031615Z AUTO 29003KT 9SM FEW045 27/20 A3005 RMK AO2
cycle: 16

Station Type Date Time Source
KUOX TAF UTC NOAA

Error!

Example: see airport list